createdAt,value
2018-02-19T00:00:19.792Z,2.54
2018-02-19T00:01:19.972Z,2.52
2018-02-19T00:02:19.802Z,2.53
2018-02-19T00:03:19.810Z,2.54
2018-02-19T00:04:19.820Z,2.54
2018-02-19T00:05:19.651Z,2.54
2018-02-19T00:06:19.840Z,2.53
2018-02-19T00:07:19.950Z,2.54
2018-02-19T00:08:19.863Z,2.52
2018-02-19T00:09:19.885Z,2.54
2018-02-19T00:10:19.694Z,2.56
2018-02-19T00:11:19.840Z,2.55
2018-02-19T00:12:19.869Z,2.54
2018-02-19T00:13:19.901Z,2.5
2018-02-19T00:14:19.867Z,2.51
2018-02-19T00:15:19.874Z,2.5
2018-02-19T00:16:19.724Z,2.49
2018-02-19T00:17:19.724Z,2.5
2018-02-19T00:18:19.712Z,2.5
2018-02-19T00:19:19.737Z,2.52
2018-02-19T00:20:19.740Z,2.5
2018-02-19T00:21:19.758Z,2.5
2018-02-19T00:22:19.753Z,2.51
2018-02-19T00:23:19.758Z,2.51
2018-02-19T00:24:19.732Z,2.5
2018-02-19T00:25:19.948Z,2.51
2018-02-19T00:26:19.743Z,2.54
2018-02-19T00:27:19.787Z,2.51
2018-02-19T00:28:19.764Z,2.55
2018-02-19T00:29:19.766Z,2.54
2018-02-19T00:30:19.922Z,2.54
2018-02-19T00:31:19.956Z,2.51
2018-02-19T00:32:19.928Z,2.53
2018-02-19T00:33:19.927Z,2.5
2018-02-19T00:34:19.841Z,2.5
2018-02-19T00:35:19.794Z,2.48
2018-02-19T00:36:19.964Z,2.48
2018-02-19T00:37:19.950Z,2.48
2018-02-19T00:38:19.965Z,2.44
2018-02-19T00:39:19.797Z,2.46
2018-02-19T00:40:19.952Z,2.43
2018-02-19T00:41:19.962Z,2.43
2018-02-19T00:42:19.984Z,2.42
2018-02-19T00:43:19.974Z,2.42
2018-02-19T00:44:19.965Z,2.42
2018-02-19T00:45:19.992Z,2.4
2018-02-19T00:46:19.987Z,2.41
2018-02-19T00:47:20.006Z,2.43
2018-02-19T00:48:19.821Z,2.41
2018-02-19T00:49:19.998Z,2.43
2018-02-19T00:50:20.007Z,2.45
2018-02-19T00:51:19.990Z,2.44
2018-02-19T00:52:19.988Z,2.47
2018-02-19T00:53:19.982Z,2.46
2018-02-19T00:54:20.014Z,2.45
2018-02-19T00:55:20.013Z,2.46
2018-02-19T00:56:20.019Z,2.45
2018-02-19T00:57:20.020Z,2.45
2018-02-19T00:58:20.023Z,2.47
2018-02-19T00:59:20.031Z,2.45
2018-02-19T01:00:19.885Z,2.44
2018-02-19T01:01:20.032Z,2.44
2018-02-19T01:02:20.036Z,2.44
2018-02-19T01:03:20.028Z,2.4
2018-02-19T01:04:20.036Z,2.4
2018-02-19T01:05:20.079Z,2.39
2018-02-19T01:06:20.055Z,2.38
2018-02-19T01:07:20.051Z,2.37
2018-02-19T01:08:20.031Z,2.36
2018-02-19T01:09:19.876Z,2.34
2018-02-19T01:10:20.053Z,2.32
2018-02-19T01:11:19.898Z,2.32
2018-02-19T01:12:20.060Z,2.29
2018-02-19T01:13:20.093Z,2.29
2018-02-19T01:14:20.063Z,2.29
2018-02-19T01:15:20.085Z,2.3
2018-02-19T01:16:20.112Z,2.28
2018-02-19T01:17:19.935Z,2.31
2018-02-19T01:18:20.112Z,2.3
2018-02-19T01:19:20.081Z,2.28
2018-02-19T01:20:19.942Z,2.3
2018-02-19T01:21:19.956Z,2.27
2018-02-19T01:22:19.942Z,2.29
2018-02-19T01:23:20.107Z,2.28
2018-02-19T01:24:20.101Z,2.3
2018-02-19T01:25:20.429Z,2.31
2018-02-19T01:26:20.120Z,2.31
2018-02-19T01:27:20.124Z,2.31
2018-02-19T01:28:20.109Z,2.32
2018-02-19T01:29:20.118Z,2.32
2018-02-19T01:30:20.141Z,2.31
2018-02-19T01:31:20.121Z,2.31
2018-02-19T01:32:20.135Z,2.32
2018-02-19T01:33:20.179Z,2.32
2018-02-19T01:34:20.147Z,2.32
2018-02-19T01:35:20.280Z,2.32
2018-02-19T01:36:20.162Z,2.32
2018-02-19T01:37:19.999Z,2.32
2018-02-19T01:38:20.157Z,2.32
2018-02-19T01:39:19.999Z,2.32
2018-02-19T01:40:20.167Z,2.32
2018-02-19T01:41:20.156Z,2.31
2018-02-19T01:42:20.010Z,2.28
2018-02-19T01:43:20.174Z,2.31
2018-02-19T01:44:19.994Z,2.29
2018-02-19T01:45:20.173Z,2.32
2018-02-19T01:46:20.155Z,2.31
2018-02-19T01:47:20.155Z,2.27
2018-02-19T01:48:20.153Z,2.29
2018-02-19T01:49:20.169Z,2.31
2018-02-19T01:50:20.163Z,2.31
2018-02-19T01:51:20.168Z,2.31
2018-02-19T01:52:20.022Z,2.3
2018-02-19T01:53:20.036Z,2.28
2018-02-19T01:54:20.048Z,2.3
2018-02-19T01:55:20.044Z,2.3
2018-02-19T01:56:20.059Z,2.3
2018-02-19T01:57:20.016Z,2.31
2018-02-19T01:58:20.219Z,2.29
2018-02-19T01:59:20.174Z,2.3
2018-02-19T02:00:20.183Z,2.31
2018-02-19T02:01:20.210Z,2.3
2018-02-19T02:02:20.191Z,2.28
2018-02-19T02:03:20.207Z,2.28
2018-02-19T02:04:20.197Z,2.29
2018-02-19T02:05:20.205Z,2.25
2018-02-19T02:06:20.600Z,2.24
2018-02-19T02:07:20.054Z,2.2
2018-02-19T02:08:20.209Z,2.2
2018-02-19T02:09:20.077Z,2.19
2018-02-19T02:10:20.221Z,2.17
2018-02-19T02:11:20.094Z,2.17
2018-02-19T02:12:20.260Z,2.18
2018-02-19T02:13:20.253Z,2.17
2018-02-19T02:14:20.263Z,2.17
2018-02-19T02:15:20.242Z,2.16
2018-02-19T02:16:20.266Z,2.15
2018-02-19T02:17:20.258Z,2.11
2018-02-19T02:18:20.256Z,2.11
2018-02-19T02:19:20.257Z,2.08
2018-02-19T02:20:20.133Z,2.09
2018-02-19T02:21:20.276Z,2.05
2018-02-19T02:22:20.276Z,2.06
2018-02-19T02:23:20.278Z,2.06
2018-02-19T02:24:20.296Z,2.06
2018-02-19T02:25:20.294Z,2.03
2018-02-19T02:26:20.298Z,2.05
2018-02-19T02:27:20.267Z,2.02
2018-02-19T02:28:20.275Z,2.03
2018-02-19T02:29:20.319Z,2.06
2018-02-19T02:30:20.307Z,2.06
2018-02-19T02:31:20.536Z,2.05
2018-02-19T02:32:20.313Z,2.06
2018-02-19T02:33:20.155Z,2.08
2018-02-19T02:34:20.300Z,2.07
2018-02-19T02:35:20.153Z,2.08
2018-02-19T02:36:20.389Z,2.08
2018-02-19T02:37:20.147Z,2.08
2018-02-19T02:38:20.331Z,2.07
2018-02-19T02:39:20.350Z,2.07
2018-02-19T02:40:20.168Z,2.08
2018-02-19T02:41:20.455Z,2.08
2018-02-19T02:42:20.168Z,2.11
2018-02-19T02:43:20.173Z,2.11
2018-02-19T02:44:20.192Z,2.06
2018-02-19T02:45:20.217Z,2.06
2018-02-19T02:46:20.445Z,2.07
2018-02-19T02:47:20.240Z,2.07
2018-02-19T02:48:20.177Z,2.08
2018-02-19T02:49:20.266Z,2.05
2018-02-19T02:50:20.233Z,2.05
2018-02-19T02:51:20.216Z,2.03
2018-02-19T02:52:20.217Z,2.03
2018-02-19T02:53:20.235Z,2.03
2018-02-19T02:54:20.211Z,2.02
2018-02-19T02:55:20.247Z,2
2018-02-19T02:56:20.232Z,2
2018-02-19T02:57:20.207Z,2
2018-02-19T02:58:20.230Z,2
2018-02-19T02:59:20.239Z,2
2018-02-19T03:00:20.251Z,1.99
2018-02-19T03:01:20.230Z,1.99
2018-02-19T03:02:20.272Z,1.97
2018-02-19T03:03:20.310Z,1.9
2018-02-19T03:04:20.251Z,1.9
2018-02-19T03:05:20.277Z,1.88
2018-02-19T03:06:20.276Z,1.9
2018-02-19T03:07:20.235Z,1.87
2018-02-19T03:08:20.244Z,1.87
2018-02-19T03:09:20.415Z,1.87
2018-02-19T03:10:20.399Z,1.83
2018-02-19T03:11:20.450Z,1.8
2018-02-19T03:12:20.495Z,1.78
2018-02-19T03:13:20.416Z,1.77
2018-02-19T03:14:20.251Z,1.77
2018-02-19T03:15:20.271Z,1.76
2018-02-19T03:16:20.248Z,1.72
2018-02-19T03:17:20.332Z,1.69
2018-02-19T03:18:20.413Z,1.7
2018-02-19T03:19:20.447Z,1.71
2018-02-19T03:20:20.278Z,1.68
2018-02-19T03:21:20.447Z,1.68
2018-02-19T03:22:20.278Z,1.68
2018-02-19T03:23:20.453Z,1.68
2018-02-19T03:24:20.440Z,1.64
2018-02-19T03:25:20.417Z,1.62
2018-02-19T03:26:20.302Z,1.61
2018-02-19T03:27:20.287Z,1.61
2018-02-19T03:28:20.292Z,1.61
2018-02-19T03:29:20.497Z,1.54
2018-02-19T03:30:20.330Z,1.52
2018-02-19T03:31:20.350Z,1.51
2018-02-19T03:32:20.316Z,1.48
2018-02-19T03:33:20.298Z,1.45
2018-02-19T03:34:20.327Z,1.44
2018-02-19T03:35:20.333Z,1.44
2018-02-19T03:36:20.347Z,1.39
2018-02-19T03:37:20.324Z,1.36
2018-02-19T03:38:20.348Z,1.33
2018-02-19T03:39:20.319Z,1.27
2018-02-19T03:40:20.337Z,1.27
2018-02-19T03:41:20.370Z,1.27
2018-02-19T03:42:20.495Z,1.27
2018-02-19T03:43:20.348Z,1.25
2018-02-19T03:44:20.329Z,1.21
2018-02-19T03:45:20.356Z,1.18
2018-02-19T03:46:20.499Z,1.21
2018-02-19T03:47:20.370Z,1.17
2018-02-19T03:48:20.353Z,1.1
2018-02-19T03:49:20.348Z,1.13
2018-02-19T03:50:20.337Z,1.08
2018-02-19T03:51:20.362Z,1.09
2018-02-19T03:52:20.522Z,1.06
2018-02-19T03:53:20.331Z,1.04
2018-02-19T03:54:20.347Z,1
2018-02-19T03:55:20.358Z,0.99
2018-02-19T03:56:20.537Z,0.95
2018-02-19T03:57:20.400Z,0.91
2018-02-19T03:58:20.393Z,0.89
2018-02-19T03:59:20.367Z,0.86
2018-02-19T04:00:20.370Z,0.88
2018-02-19T04:01:20.374Z,0.84
2018-02-19T04:02:20.424Z,0.87
2018-02-19T04:03:20.397Z,0.82
2018-02-19T04:04:20.394Z,0.83
2018-02-19T04:05:20.435Z,0.85
2018-02-19T04:06:20.384Z,0.88
2018-02-19T04:07:20.553Z,0.87
2018-02-19T04:08:20.435Z,0.92
2018-02-19T04:09:20.399Z,0.92
2018-02-19T04:10:20.448Z,0.9
2018-02-19T04:11:20.410Z,0.88
2018-02-19T04:12:20.411Z,0.89
2018-02-19T04:13:20.499Z,0.89
2018-02-19T04:14:20.424Z,0.86
2018-02-19T04:15:20.439Z,0.81
2018-02-19T04:16:20.439Z,0.81
2018-02-19T04:17:20.425Z,0.81
2018-02-19T04:18:20.435Z,0.77
2018-02-19T04:19:20.449Z,0.79
2018-02-19T04:20:20.416Z,0.75
2018-02-19T04:21:20.602Z,0.72
2018-02-19T04:22:20.604Z,0.72
2018-02-19T04:23:20.583Z,0.74
2018-02-19T04:24:20.609Z,0.72
2018-02-19T04:25:20.601Z,0.71
2018-02-19T04:26:20.587Z,0.67
2018-02-19T04:27:20.476Z,0.68
2018-02-19T04:28:20.614Z,0.65
2018-02-19T04:29:20.466Z,0.65
2018-02-19T04:30:20.457Z,0.64
2018-02-19T04:31:20.626Z,0.65
2018-02-19T04:32:20.465Z,0.67
2018-02-19T04:33:20.457Z,0.7
2018-02-19T04:34:20.682Z,0.72
2018-02-19T04:35:20.630Z,0.68
2018-02-19T04:36:20.669Z,0.68
2018-02-19T04:37:20.654Z,0.67
2018-02-19T04:38:20.498Z,0.63
2018-02-19T04:39:20.737Z,0.63
2018-02-19T04:40:20.499Z,0.62
2018-02-19T04:41:20.677Z,0.63
2018-02-19T04:42:20.513Z,0.64
2018-02-19T04:43:20.804Z,0.61
2018-02-19T04:44:20.524Z,0.58
2018-02-19T04:45:20.681Z,0.58
2018-02-19T04:46:20.665Z,0.58
2018-02-19T04:47:20.692Z,0.56
2018-02-19T04:48:20.541Z,0.53
2018-02-19T04:49:20.689Z,0.54
2018-02-19T04:50:20.717Z,0.55
2018-02-19T04:51:20.555Z,0.54
2018-02-19T04:52:20.724Z,0.52
2018-02-19T04:53:20.532Z,0.52
2018-02-19T04:54:20.729Z,0.51
2018-02-19T04:55:20.551Z,0.5
2018-02-19T04:56:20.577Z,0.51
2018-02-19T04:57:20.579Z,0.48
2018-02-19T04:58:20.572Z,0.43
2018-02-19T04:59:20.558Z,0.43
2018-02-19T05:00:20.591Z,0.42
2018-02-19T05:01:20.556Z,0.42
2018-02-19T05:02:20.578Z,0.39
2018-02-19T05:03:20.583Z,0.39
2018-02-19T05:04:20.569Z,0.39
2018-02-19T05:05:20.592Z,0.38
2018-02-19T05:06:20.589Z,0.39
2018-02-19T05:07:20.596Z,0.38
2018-02-19T05:08:20.604Z,0.38
2018-02-19T05:09:20.590Z,0.36
2018-02-19T05:10:20.593Z,0.33
2018-02-19T05:11:20.609Z,0.36
2018-02-19T05:12:20.636Z,0.37
2018-02-19T05:13:20.652Z,0.33
2018-02-19T05:14:20.730Z,0.33
2018-02-19T05:15:20.616Z,0.34
2018-02-19T05:16:20.610Z,0.32
2018-02-19T05:17:20.630Z,0.31
2018-02-19T05:18:20.670Z,0.27
2018-02-19T05:19:20.656Z,0.28
2018-02-19T05:20:20.637Z,0.27
2018-02-19T05:21:20.620Z,0.28
2018-02-19T05:22:20.673Z,0.28
2018-02-19T05:23:20.644Z,0.27
2018-02-19T05:24:20.675Z,0.32
2018-02-19T05:25:20.675Z,0.29
2018-02-19T05:26:20.674Z,0.3
2018-02-19T05:27:20.679Z,0.29
2018-02-19T05:28:20.714Z,0.28
2018-02-19T05:29:20.671Z,0.29
2018-02-19T05:30:20.686Z,0.31
2018-02-19T05:31:20.686Z,0.26
2018-02-19T05:32:20.866Z,0.26
2018-02-19T05:33:20.972Z,0.25
2018-02-19T05:34:20.854Z,0.24
2018-02-19T05:35:20.691Z,0.23
2018-02-19T05:36:20.862Z,0.22
2018-02-19T05:37:20.858Z,0.2
2018-02-19T05:38:20.887Z,0.19
2018-02-19T05:39:20.888Z,0.19
2018-02-19T05:40:20.892Z,0.19
2018-02-19T05:41:20.693Z,0.19
2018-02-19T05:42:20.888Z,0.16
2018-02-19T05:43:20.902Z,0.17
2018-02-19T05:44:20.818Z,0.15
2018-02-19T05:45:20.868Z,0.15
2018-02-19T05:46:20.884Z,0.13
2018-02-19T05:47:20.713Z,0.14
2018-02-19T05:48:20.894Z,0.13
2018-02-19T05:49:20.750Z,0.12
2018-02-19T05:50:20.728Z,0.12
2018-02-19T05:51:20.897Z,0.12
2018-02-19T05:52:20.912Z,0.11
2018-02-19T05:53:20.904Z,0.12
2018-02-19T05:54:20.924Z,0.15
2018-02-19T05:55:20.907Z,0.2
2018-02-19T05:56:20.766Z,0.15
2018-02-19T05:57:20.757Z,0.18
2018-02-19T05:58:20.762Z,0.18
2018-02-19T05:59:20.808Z,0.18
2018-02-19T06:00:20.766Z,0.17
2018-02-19T06:01:20.755Z,0.14
2018-02-19T06:02:20.927Z,0.18
2018-02-19T06:03:20.942Z,0.17
2018-02-19T06:04:20.812Z,0.14
2018-02-19T06:05:20.824Z,0.14
2018-02-19T06:06:20.981Z,0.17
2018-02-19T06:07:20.772Z,0.19
2018-02-19T06:08:20.781Z,0.21
2018-02-19T06:09:21.062Z,0.21
2018-02-19T06:10:20.797Z,0.25
2018-02-19T06:11:20.798Z,0.25
2018-02-19T06:12:20.795Z,0.24
2018-02-19T06:13:20.818Z,0.26
2018-02-19T06:14:20.820Z,0.27
2018-02-19T06:15:20.874Z,0.25
2018-02-19T06:16:20.831Z,0.23
2018-02-19T06:17:20.815Z,0.21
2018-02-19T06:18:20.840Z,0.24
2018-02-19T06:19:20.858Z,0.22
2018-02-19T06:20:20.818Z,0.23
2018-02-19T06:21:20.849Z,0.24
2018-02-19T06:22:20.811Z,0.26
2018-02-19T06:23:20.832Z,0.27
2018-02-19T06:24:20.887Z,0.29
2018-02-19T06:25:20.992Z,0.32
2018-02-19T06:26:20.861Z,0.32
2018-02-19T06:27:20.860Z,0.32
2018-02-19T06:28:20.846Z,0.29
2018-02-19T06:29:20.879Z,0.32
2018-02-19T06:30:20.861Z,0.34
2018-02-19T06:31:20.929Z,0.35
2018-02-19T06:32:20.978Z,0.34
2018-02-19T06:33:20.849Z,0.33
2018-02-19T06:34:20.906Z,0.33
2018-02-19T06:35:20.901Z,0.35
2018-02-19T06:36:20.903Z,0.31
2018-02-19T06:37:20.890Z,0.31
2018-02-19T06:38:20.883Z,0.31
2018-02-19T06:39:20.872Z,0.34
2018-02-19T06:40:20.898Z,0.34
2018-02-19T06:41:20.906Z,0.35
2018-02-19T06:42:20.906Z,0.34
2018-02-19T06:43:21.260Z,0.35
2018-02-19T06:44:21.091Z,0.36
2018-02-19T06:45:21.128Z,0.37
2018-02-19T06:46:20.919Z,0.39
2018-02-19T06:47:21.088Z,0.4
2018-02-19T06:48:21.103Z,0.4
2018-02-19T06:49:20.921Z,0.4
2018-02-19T06:50:20.972Z,0.42
2018-02-19T06:51:21.110Z,0.4
2018-02-19T06:52:20.983Z,0.42
2018-02-19T06:53:21.164Z,0.4
2018-02-19T06:54:21.448Z,0.41
2018-02-19T06:55:21.141Z,0.4
2018-02-19T06:56:21.125Z,0.4
2018-02-19T06:57:20.964Z,0.43
2018-02-19T06:58:20.971Z,0.45
2018-02-19T06:59:20.965Z,0.42
2018-02-19T07:00:20.972Z,0.45
2018-02-19T07:01:21.021Z,0.47
2018-02-19T07:02:20.991Z,0.47
2018-02-19T07:03:20.992Z,0.45
2018-02-19T07:04:21.205Z,0.45
2018-02-19T07:05:21.014Z,0.42
2018-02-19T07:06:21.167Z,0.43
2018-02-19T07:07:20.996Z,0.44
2018-02-19T07:08:21.001Z,0.39
2018-02-19T07:09:21.164Z,0.41
2018-02-19T07:10:21.156Z,0.39
2018-02-19T07:11:21.014Z,0.39
2018-02-19T07:12:21.042Z,0.38
2018-02-19T07:13:21.214Z,0.38
2018-02-19T07:14:21.003Z,0.39
2018-02-19T07:15:21.189Z,0.39
2018-02-19T07:16:21.038Z,0.4
2018-02-19T07:17:21.191Z,0.38
2018-02-19T07:18:21.066Z,0.36
2018-02-19T07:19:21.042Z,0.38
2018-02-19T07:20:21.207Z,0.39
2018-02-19T07:21:21.027Z,0.38
2018-02-19T07:22:21.042Z,0.36
2018-02-19T07:23:21.224Z,0.39
2018-02-19T07:24:21.058Z,0.38
2018-02-19T07:25:21.061Z,0.4
2018-02-19T07:26:21.087Z,0.42
2018-02-19T07:27:21.227Z,0.46
2018-02-19T07:28:21.097Z,0.46
2018-02-19T07:29:21.083Z,0.43
2018-02-19T07:30:21.076Z,0.44
2018-02-19T07:31:21.082Z,0.45
2018-02-19T07:32:21.082Z,0.45
2018-02-19T07:33:21.065Z,0.44
2018-02-19T07:34:21.067Z,0.43
2018-02-19T07:35:21.048Z,0.4
2018-02-19T07:36:21.131Z,0.4
2018-02-19T07:37:21.089Z,0.39
2018-02-19T07:38:21.067Z,0.42
2018-02-19T07:39:21.383Z,0.42
2018-02-19T07:40:21.090Z,0.45
2018-02-19T07:41:21.122Z,0.46
2018-02-19T07:42:21.094Z,0.47
2018-02-19T07:43:21.098Z,0.46
2018-02-19T07:44:21.580Z,0.45
2018-02-19T07:45:21.161Z,0.45
2018-02-19T07:46:21.145Z,0.46
2018-02-19T07:47:21.120Z,0.45
2018-02-19T07:48:21.167Z,0.5
2018-02-19T07:49:21.121Z,0.53
2018-02-19T07:50:21.158Z,0.55
2018-02-19T07:51:21.201Z,0.59
2018-02-19T07:52:21.168Z,0.58
2018-02-19T07:53:21.165Z,0.58
2018-02-19T07:54:21.173Z,0.59
2018-02-19T07:55:21.322Z,0.57
2018-02-19T07:56:21.316Z,0.58
2018-02-19T07:57:21.352Z,0.6
2018-02-19T07:58:21.291Z,0.59
2018-02-19T07:59:21.325Z,0.61
2018-02-19T08:00:21.203Z,0.59
2018-02-19T08:01:21.224Z,0.57
2018-02-19T08:02:21.151Z,0.54
2018-02-19T08:03:21.151Z,0.57
2018-02-19T08:04:21.168Z,0.58
2018-02-19T08:05:21.195Z,0.61
2018-02-19T08:06:21.148Z,0.6
2018-02-19T08:07:21.187Z,0.6
2018-02-19T08:08:21.168Z,0.6
2018-02-19T08:09:21.186Z,0.64
2018-02-19T08:10:21.188Z,0.64
2018-02-19T08:11:21.342Z,0.64
2018-02-19T08:12:21.348Z,0.66
2018-02-19T08:13:21.177Z,0.67
2018-02-19T08:14:21.249Z,0.69
2018-02-19T08:15:21.193Z,0.7
2018-02-19T08:16:21.185Z,0.7
2018-02-19T08:17:21.192Z,0.72
2018-02-19T08:18:21.212Z,0.72
2018-02-19T08:19:21.198Z,0.7
2018-02-19T08:20:21.195Z,0.7
2018-02-19T08:21:21.220Z,0.7
2018-02-19T08:22:21.219Z,0.7
2018-02-19T08:23:21.218Z,0.7
2018-02-19T08:24:21.202Z,0.7
2018-02-19T08:25:21.203Z,0.73
2018-02-19T08:26:21.247Z,0.75
2018-02-19T08:27:21.221Z,0.76
2018-02-19T08:28:21.395Z,0.77
2018-02-19T08:29:21.234Z,0.8
2018-02-19T08:30:21.242Z,0.82
2018-02-19T08:31:21.229Z,0.83
2018-02-19T08:32:21.249Z,0.81
2018-02-19T08:33:21.283Z,0.85
2018-02-19T08:34:21.259Z,0.86
2018-02-19T08:35:21.289Z,0.88
2018-02-19T08:36:21.276Z,0.9
2018-02-19T08:37:21.246Z,0.91
2018-02-19T08:38:21.247Z,0.91
2018-02-19T08:39:21.278Z,0.91
2018-02-19T08:40:21.262Z,0.91
2018-02-19T08:41:21.296Z,0.94
2018-02-19T08:42:21.275Z,0.92
2018-02-19T08:43:21.280Z,0.96
2018-02-19T08:44:21.319Z,0.96
2018-02-19T08:45:21.314Z,0.97
2018-02-19T08:46:21.327Z,0.99
2018-02-19T08:47:21.283Z,1.01
2018-02-19T08:48:21.318Z,0.97
2018-02-19T08:49:21.278Z,1
2018-02-19T08:50:21.317Z,1.02
2018-02-19T08:51:21.327Z,1.02
2018-02-19T08:52:21.322Z,1.03
2018-02-19T08:53:21.379Z,1.05
2018-02-19T08:54:21.322Z,1.03
2018-02-19T08:55:21.285Z,1.05
2018-02-19T08:56:21.345Z,1.05
2018-02-19T08:57:21.330Z,1.07
2018-02-19T08:58:21.308Z,1.08
2018-02-19T08:59:21.357Z,1.09
2018-02-19T09:00:21.509Z,1.08
2018-02-19T09:01:21.369Z,1.09
2018-02-19T09:02:21.626Z,1.13
2018-02-19T09:03:21.341Z,1.1
2018-02-19T09:04:21.348Z,1.13
2018-02-19T09:05:21.358Z,1.1
2018-02-19T09:06:21.339Z,1.12
2018-02-19T09:07:21.538Z,1.1
2018-02-19T09:08:21.507Z,1.12
2018-02-19T09:09:21.361Z,1.13
2018-02-19T09:10:21.541Z,1.13
2018-02-19T09:11:21.527Z,1.15
2018-02-19T09:12:21.405Z,1.19
2018-02-19T09:13:21.577Z,1.22
2018-02-19T09:14:21.403Z,1.23
2018-02-19T09:15:21.476Z,1.25
2018-02-19T09:16:21.542Z,1.25
2018-02-19T09:17:21.399Z,1.28
2018-02-19T09:18:21.387Z,1.28
2018-02-19T09:19:21.542Z,1.31
2018-02-19T09:20:21.575Z,1.31
2018-02-19T09:21:21.424Z,1.31
2018-02-19T09:22:21.421Z,1.32
2018-02-19T09:23:21.462Z,1.33
2018-02-19T09:24:21.409Z,1.34
2018-02-19T09:25:21.567Z,1.34
2018-02-19T09:26:21.576Z,1.38
2018-02-19T09:27:21.672Z,1.37
2018-02-19T09:28:21.691Z,1.37
2018-02-19T09:29:21.409Z,1.38
2018-02-19T09:30:21.457Z,1.41
2018-02-19T09:31:21.425Z,1.37
2018-02-19T09:32:21.571Z,1.39
2018-02-19T09:33:21.446Z,1.38
2018-02-19T09:34:21.608Z,1.4
2018-02-19T09:35:21.591Z,1.4
2018-02-19T09:36:21.601Z,1.4
2018-02-19T09:37:21.454Z,1.39
2018-02-19T09:38:21.625Z,1.4
2018-02-19T09:39:21.443Z,1.43
2018-02-19T09:40:21.456Z,1.45
2018-02-19T09:41:21.574Z,1.46
2018-02-19T09:42:21.623Z,1.49
2018-02-19T09:43:21.462Z,1.5
2018-02-19T09:44:21.476Z,1.5
2018-02-19T09:45:21.493Z,1.51
2018-02-19T09:46:21.522Z,1.52
2018-02-19T09:47:21.496Z,1.53
2018-02-19T09:48:21.658Z,1.53
2018-02-19T09:49:21.496Z,1.57
2018-02-19T09:50:21.493Z,1.57
2018-02-19T09:51:21.527Z,1.62
2018-02-19T09:52:21.492Z,1.61
2018-02-19T09:53:21.497Z,1.65
2018-02-19T09:54:21.498Z,1.7
2018-02-19T09:55:21.529Z,1.7
2018-02-19T09:56:21.521Z,1.71
2018-02-19T09:57:21.528Z,1.75
2018-02-19T09:58:21.542Z,1.71
2018-02-19T09:59:21.516Z,1.71
2018-02-19T10:00:21.535Z,1.75
2018-02-19T10:01:21.669Z,1.78
2018-02-19T10:02:21.540Z,1.76
2018-02-19T10:03:21.684Z,1.73
2018-02-19T10:04:21.540Z,1.75
2018-02-19T10:05:21.556Z,1.76
2018-02-19T10:06:21.631Z,1.77
2018-02-19T10:07:21.577Z,1.73
2018-02-19T10:08:21.585Z,1.77
2018-02-19T10:09:21.551Z,1.78
2018-02-19T10:10:21.580Z,1.78
2018-02-19T10:11:21.676Z,1.8
2018-02-19T10:12:21.552Z,1.78
2018-02-19T10:13:21.548Z,1.79
2018-02-19T10:14:21.566Z,1.82
2018-02-19T10:15:21.750Z,1.84
2018-02-19T10:16:21.687Z,1.84
2018-02-19T10:17:21.603Z,1.88
2018-02-19T10:18:21.592Z,1.89
2018-02-19T10:19:21.746Z,1.89
2018-02-19T10:20:21.765Z,1.94
2018-02-19T10:21:21.750Z,1.94
2018-02-19T10:22:21.779Z,1.94
2018-02-19T10:23:21.742Z,1.96
2018-02-19T10:24:22.074Z,1.97
2018-02-19T10:25:21.774Z,2.01
2018-02-19T10:26:21.743Z,2.01
2018-02-19T10:27:21.628Z,2.05
2018-02-19T10:28:21.766Z,2.07
2018-02-19T10:29:21.772Z,2.07
2018-02-19T10:30:22.047Z,2.07
2018-02-19T10:31:21.807Z,2.06
2018-02-19T10:32:21.811Z,2.07
2018-02-19T10:33:21.782Z,2.09
2018-02-19T10:34:21.807Z,2.08
2018-02-19T10:35:21.805Z,2.1
2018-02-19T10:36:21.827Z,2.14
2018-02-19T10:37:22.281Z,2.1
2018-02-19T10:38:21.806Z,2.1
2018-02-19T10:39:21.646Z,2.13
2018-02-19T10:40:21.796Z,2.13
2018-02-19T10:41:21.833Z,2.12
2018-02-19T10:42:21.820Z,2.14
2018-02-19T10:43:21.798Z,2.11
2018-02-19T10:44:21.824Z,2.11
2018-02-19T10:45:21.660Z,2.11
2018-02-19T10:46:21.883Z,2.09
2018-02-19T10:47:21.690Z,2.11
2018-02-19T10:48:21.677Z,2.14
2018-02-19T10:49:21.938Z,2.14
2018-02-19T10:50:21.851Z,2.13
2018-02-19T10:51:21.864Z,2.14
2018-02-19T10:52:21.695Z,2.1
2018-02-19T10:53:21.849Z,2.05
2018-02-19T10:54:21.678Z,2.05
2018-02-19T10:55:21.684Z,2.06
2018-02-19T10:56:21.757Z,2.06
2018-02-19T10:57:21.695Z,2.08
2018-02-19T10:58:21.695Z,2.09
2018-02-19T10:59:21.726Z,2.13
2018-02-19T11:00:21.683Z,2.11
2018-02-19T11:01:21.912Z,2.07
2018-02-19T11:02:21.719Z,2.08
2018-02-19T11:03:21.699Z,2.09
2018-02-19T11:04:21.716Z,2.1
2018-02-19T11:05:21.722Z,2.14
2018-02-19T11:06:21.740Z,2.15
2018-02-19T11:07:21.718Z,2.17
2018-02-19T11:08:21.733Z,2.2
2018-02-19T11:09:21.761Z,2.22
2018-02-19T11:10:22.831Z,2.26
2018-02-19T11:11:21.751Z,2.28
2018-02-19T11:12:21.731Z,2.32
2018-02-19T11:13:22.086Z,2.34
2018-02-19T11:14:21.758Z,2.33
2018-02-19T11:15:21.739Z,2.35
2018-02-19T11:16:21.813Z,2.37
2018-02-19T11:17:21.739Z,2.35
2018-02-19T11:18:21.744Z,2.37
2018-02-19T11:19:21.785Z,2.38
2018-02-19T11:20:21.766Z,2.37
2018-02-19T11:21:22.002Z,2.38
2018-02-19T11:22:21.829Z,2.39
2018-02-19T11:23:21.777Z,2.4
2018-02-19T11:24:21.793Z,2.39
2018-02-19T11:25:21.781Z,2.42
2018-02-19T11:26:21.789Z,2.44
2018-02-19T11:27:22.063Z,2.46
2018-02-19T11:28:22.025Z,2.47
2018-02-19T11:29:21.803Z,2.51
2018-02-19T11:30:21.960Z,2.51
2018-02-19T11:31:22.084Z,2.53
2018-02-19T11:32:22.087Z,2.57
2018-02-19T11:33:21.995Z,2.57
2018-02-19T11:34:22.000Z,2.58
2018-02-19T11:35:21.998Z,2.57
2018-02-19T11:36:22.023Z,2.59
2018-02-19T11:37:22.144Z,2.64
2018-02-19T11:38:21.989Z,2.7
2018-02-19T11:39:34.259Z,2.73
2018-02-19T11:40:21.843Z,2.74
2018-02-19T11:41:22.043Z,2.76
2018-02-19T11:42:21.857Z,2.72
2018-02-19T11:43:21.856Z,2.74
2018-02-19T11:44:22.082Z,2.77
2018-02-19T11:45:22.050Z,2.78
2018-02-19T11:46:21.969Z,2.77
2018-02-19T11:47:21.986Z,2.76
2018-02-19T11:48:22.099Z,2.73
2018-02-19T11:49:22.080Z,2.75
2018-02-19T11:50:22.038Z,2.75
2018-02-19T11:51:22.033Z,2.77
2018-02-19T11:52:22.021Z,2.78
2018-02-19T11:53:22.038Z,2.82
2018-02-19T11:54:22.029Z,2.81
2018-02-19T11:55:22.041Z,2.8
2018-02-19T11:56:22.032Z,2.78
2018-02-19T11:57:22.044Z,2.75
2018-02-19T11:58:22.335Z,2.73
2018-02-19T11:59:22.053Z,2.71
2018-02-19T12:00:22.054Z,2.7
2018-02-19T12:01:21.869Z,2.69
2018-02-19T12:02:22.088Z,2.71
2018-02-19T12:03:22.068Z,2.67
2018-02-19T12:04:21.876Z,2.68
2018-02-19T12:05:21.892Z,2.66
2018-02-19T12:06:21.885Z,2.65
2018-02-19T12:07:21.906Z,2.55
2018-02-19T12:08:21.916Z,2.44
2018-02-19T12:09:21.951Z,2.41
2018-02-19T12:10:21.920Z,2.45
2018-02-19T12:11:21.932Z,2.47
2018-02-19T12:12:22.177Z,2.46
2018-02-19T12:13:21.934Z,2.45
2018-02-19T12:14:21.947Z,2.44
2018-02-19T12:15:21.938Z,2.45
2018-02-19T12:16:21.966Z,2.48
2018-02-19T12:17:21.960Z,2.46
2018-02-19T12:18:22.204Z,2.5
2018-02-19T12:19:21.932Z,2.5
2018-02-19T12:20:21.936Z,2.51
2018-02-19T12:21:21.944Z,2.46
2018-02-19T12:22:21.969Z,2.46
2018-02-19T12:23:21.992Z,2.45
2018-02-19T12:24:21.957Z,2.37
2018-02-19T12:25:21.955Z,2.32
2018-02-19T12:26:22.057Z,2.32
2018-02-19T12:27:21.982Z,2.33
2018-02-19T12:28:21.972Z,2.34
2018-02-19T12:29:21.975Z,2.35
2018-02-19T12:30:21.935Z,2.34
2018-02-19T12:31:21.980Z,2.37
2018-02-19T12:32:21.958Z,2.33
2018-02-19T12:33:22.023Z,2.28
2018-02-19T12:34:22.182Z,2.28
2018-02-19T12:35:22.132Z,2.29
2018-02-19T12:36:22.120Z,2.36
2018-02-19T12:37:21.952Z,2.35
2018-02-19T12:38:21.986Z,2.4
2018-02-19T12:39:21.993Z,2.42
2018-02-19T12:40:21.975Z,2.46
2018-02-19T12:41:22.158Z,2.47
2018-02-19T12:42:22.163Z,2.5
2018-02-19T12:43:22.158Z,2.51
2018-02-19T12:44:22.159Z,2.54
2018-02-19T12:47:28.253Z,2.43
2018-02-19T12:48:22.156Z,2.45
2018-02-19T12:49:22.296Z,2.44
2018-02-19T12:50:22.026Z,2.47
2018-02-19T12:51:22.167Z,2.51
2018-02-19T12:52:22.209Z,2.53
2018-02-19T12:53:22.004Z,2.57
2018-02-19T12:54:22.199Z,2.57
2018-02-19T12:55:22.003Z,2.62
2018-02-19T12:56:22.073Z,2.64
2018-02-19T12:57:22.204Z,2.63
2018-02-19T12:58:22.197Z,2.64
2018-02-19T12:59:22.168Z,2.62
2018-02-19T13:00:22.245Z,2.64
2018-02-19T13:01:22.265Z,2.68
2018-02-19T13:02:22.194Z,2.73
2018-02-19T13:03:22.249Z,2.72
2018-02-19T13:04:22.230Z,2.71
2018-02-19T13:05:22.203Z,2.74
2018-02-19T13:06:22.119Z,2.68
2018-02-19T13:07:22.229Z,2.69
2018-02-19T13:08:22.217Z,2.7
2018-02-19T13:09:22.260Z,2.69
2018-02-19T13:10:22.076Z,2.67
2018-02-19T13:11:22.244Z,2.65
2018-02-19T13:12:22.240Z,2.63
2018-02-19T13:13:22.293Z,2.63
2018-02-19T13:14:22.232Z,2.63
2018-02-19T13:15:22.151Z,2.64
2018-02-19T13:16:22.253Z,2.66
2018-02-19T13:17:22.100Z,2.59
2018-02-19T13:18:22.505Z,2.61
2018-02-19T13:19:22.165Z,2.59
2018-02-19T13:20:22.102Z,2.62
2018-02-19T13:21:22.104Z,2.61
2018-02-19T13:22:22.129Z,2.62
2018-02-19T13:23:22.137Z,2.64
2018-02-19T13:24:22.375Z,2.68